sensor_id;sensor_type;location;lat;lon;timestamp;P1;durP1;ratioP1;P2;durP2;ratioP2
22040;SDS011;11184;52.444;13.578;2023-04-08T00:00:48;32.03;;;22.55;;
22040;SDS011;11184;52.444;13.578;2023-04-08T00:03:33;25.30;;;19.85;;
22040;SDS011;11184;52.444;13.578;2023-04-08T00:06:17;31.90;;;22.88;;
22040;SDS011;11184;52.444;13.578;2023-04-08T00:09:02;28.73;;;22.02;;
22040;SDS011;11184;52.444;13.578;2023-04-08T00:11:46;28.13;;;20.10;;
22040;SDS011;11184;52.444;13.578;2023-04-08T00:14:31;33.90;;;23.40;;
22040;SDS011;11184;52.444;13.578;2023-04-08T00:17:16;41.72;;;26.10;;
22040;SDS011;11184;52.444;13.578;2023-04-08T00:20:00;38.85;;;24.60;;
22040;SDS011;11184;52.444;13.578;2023-04-08T00:22:45;34.05;;;23.08;;
22040;SDS011;11184;52.444;13.578;2023-04-08T00:25:30;40.45;;;26.25;;
22040;SDS011;11184;52.444;13.578;2023-04-08T00:28:14;42.90;;;27.58;;
22040;SDS011;11184;52.444;13.578;2023-04-08T00:30:59;42.97;;;27.92;;
22040;SDS011;11184;52.444;13.578;2023-04-08T00:33:43;39.10;;;26.77;;
22040;SDS011;11184;52.444;13.578;2023-04-08T00:36:28;43.83;;;28.80;;
22040;SDS011;11184;52.444;13.578;2023-04-08T00:39:13;43.95;;;28.70;;
22040;SDS011;11184;52.444;13.578;2023-04-08T00:41:58;51.17;;;30.75;;
22040;SDS011;11184;52.444;13.578;2023-04-08T00:44:44;51.88;;;30.70;;
22040;SDS011;11184;52.444;13.578;2023-04-08T00:47:30;51.20;;;29.75;;
22040;SDS011;11184;52.444;13.578;2023-04-08T00:50:15;49.67;;;30.83;;
22040;SDS011;11184;52.444;13.578;2023-04-08T00:52:59;58.22;;;33.13;;
22040;SDS011;11184;52.444;13.578;2023-04-08T00:55:44;58.90;;;33.03;;
22040;SDS011;11184;52.444;13.578;2023-04-08T00:58:29;61.42;;;34.63;;
22040;SDS011;11184;52.444;13.578;2023-04-08T01:01:14;62.50;;;34.67;;
22040;SDS011;11184;52.444;13.578;2023-04-08T01:04:03;64.85;;;36.17;;
22040;SDS011;11184;52.444;13.578;2023-04-08T01:06:51;58.22;;;33.88;;
22040;SDS011;11184;52.444;13.578;2023-04-08T01:09:40;59.42;;;33.78;;
22040;SDS011;11184;52.444;13.578;2023-04-08T01:12:27;64.63;;;35.30;;
22040;SDS011;11184;52.444;13.578;2023-04-08T01:15:12;67.03;;;37.22;;
22040;SDS011;11184;52.444;13.578;2023-04-08T01:17:58;66.45;;;38.65;;
22040;SDS011;11184;52.444;13.578;2023-04-08T01:20:44;75.72;;;37.20;;
22040;SDS011;11184;52.444;13.578;2023-04-08T01:26:33;66.22;;;36.75;;
22040;SDS011;11184;52.444;13.578;2023-04-08T01:29:18;67.43;;;38.10;;
22040;SDS011;11184;52.444;13.578;2023-04-08T01:32:04;61.78;;;33.28;;
22040;SDS011;11184;52.444;13.578;2023-04-08T01:34:50;69.38;;;37.60;;
22040;SDS011;11184;52.444;13.578;2023-04-08T01:37:36;69.75;;;37.83;;
22040;SDS011;11184;52.444;13.578;2023-04-08T01:40:21;70.03;;;39.08;;
22040;SDS011;11184;52.444;13.578;2023-04-08T01:43:07;68.75;;;36.78;;
22040;SDS011;11184;52.444;13.578;2023-04-08T01:45:52;71.80;;;39.90;;
22040;SDS011;11184;52.444;13.578;2023-04-08T01:48:40;75.60;;;39.45;;
22040;SDS011;11184;52.444;13.578;2023-04-08T01:51:25;70.72;;;39.38;;
22040;SDS011;11184;52.444;13.578;2023-04-08T01:54:10;76.72;;;40.67;;
22040;SDS011;11184;52.444;13.578;2023-04-08T01:56:55;82.78;;;42.08;;
22040;SDS011;11184;52.444;13.578;2023-04-08T01:59:40;79.93;;;40.53;;
22040;SDS011;11184;52.444;13.578;2023-04-08T02:02:25;79.90;;;42.10;;
22040;SDS011;11184;52.444;13.578;2023-04-08T02:05:10;93.50;;;44.88;;
22040;SDS011;11184;52.444;13.578;2023-04-08T02:07:55;89.97;;;43.25;;
22040;SDS011;11184;52.444;13.578;2023-04-08T02:10:40;74.80;;;40.58;;
22040;SDS011;11184;52.444;13.578;2023-04-08T02:13:24;77.53;;;41.53;;
22040;SDS011;11184;52.444;13.578;2023-04-08T02:16:12;88.65;;;41.83;;
22040;SDS011;11184;52.444;13.578;2023-04-08T02:19:07;81.90;;;40.75;;
22040;SDS011;11184;52.444;13.578;2023-04-08T02:21:54;94.20;;;44.35;;
22040;SDS011;11184;52.444;13.578;2023-04-08T02:24:39;78.45;;;42.97;;
22040;SDS011;11184;52.444;13.578;2023-04-08T02:27:24;93.65;;;46.45;;
22040;SDS011;11184;52.444;13.578;2023-04-08T02:30:10;85.57;;;43.05;;
22040;SDS011;11184;52.444;13.578;2023-04-08T02:32:55;89.00;;;41.22;;
22040;SDS011;11184;52.444;13.578;2023-04-08T02:35:40;92.88;;;47.83;;
22040;SDS011;11184;52.444;13.578;2023-04-08T02:38:25;102.65;;;46.30;;
22040;SDS011;11184;52.444;13.578;2023-04-08T02:41:12;88.47;;;46.42;;
22040;SDS011;11184;52.444;13.578;2023-04-08T02:43:57;110.32;;;47.53;;
22040;SDS011;11184;52.444;13.578;2023-04-08T02:46:41;92.57;;;47.05;;
22040;SDS011;11184;52.444;13.578;2023-04-08T02:49:26;86.20;;;43.10;;
22040;SDS011;11184;52.444;13.578;2023-04-08T02:52:10;92.47;;;44.92;;
22040;SDS011;11184;52.444;13.578;2023-04-08T02:54:55;90.15;;;46.63;;
22040;SDS011;11184;52.444;13.578;2023-04-08T02:57:41;90.05;;;44.47;;
22040;SDS011;11184;52.444;13.578;2023-04-08T03:00:26;102.70;;;47.05;;
22040;SDS011;11184;52.444;13.578;2023-04-08T03:03:10;94.00;;;47.00;;
22040;SDS011;11184;52.444;13.578;2023-04-08T03:05:55;84.57;;;43.42;;
22040;SDS011;11184;52.444;13.578;2023-04-08T03:08:40;86.65;;;44.40;;
22040;SDS011;11184;52.444;13.578;2023-04-08T03:11:25;94.18;;;44.00;;
22040;SDS011;11184;52.444;13.578;2023-04-08T03:14:09;97.25;;;44.67;;
22040;SDS011;11184;52.444;13.578;2023-04-08T03:16:54;91.00;;;44.90;;
22040;SDS011;11184;52.444;13.578;2023-04-08T03:19:38;88.75;;;44.03;;
22040;SDS011;11184;52.444;13.578;2023-04-08T03:22:24;85.88;;;41.42;;
22040;SDS011;11184;52.444;13.578;2023-04-08T03:25:08;88.50;;;45.05;;
22040;SDS011;11184;52.444;13.578;2023-04-08T03:27:54;84.60;;;42.85;;
22040;SDS011;11184;52.444;13.578;2023-04-08T03:30:39;85.18;;;42.53;;
22040;SDS011;11184;52.444;13.578;2023-04-08T03:33:23;82.22;;;43.95;;
22040;SDS011;11184;52.444;13.578;2023-04-08T03:36:08;86.82;;;44.88;;
22040;SDS011;11184;52.444;13.578;2023-04-08T03:38:53;86.20;;;42.40;;
22040;SDS011;11184;52.444;13.578;2023-04-08T03:41:37;85.85;;;44.13;;
22040;SDS011;11184;52.444;13.578;2023-04-08T03:44:22;87.07;;;44.92;;
22040;SDS011;11184;52.444;13.578;2023-04-08T03:47:06;94.50;;;48.53;;
22040;SDS011;11184;52.444;13.578;2023-04-08T03:49:52;93.53;;;49.95;;
22040;SDS011;11184;52.444;13.578;2023-04-08T03:52:39;95.82;;;47.13;;
22040;SDS011;11184;52.444;13.578;2023-04-08T03:55:24;100.38;;;49.42;;
22040;SDS011;11184;52.444;13.578;2023-04-08T03:58:09;94.30;;;47.60;;
22040;SDS011;11184;52.444;13.578;2023-04-08T04:00:53;99.05;;;48.80;;
22040;SDS011;11184;52.444;13.578;2023-04-08T04:03:38;107.53;;;50.00;;
22040;SDS011;11184;52.444;13.578;2023-04-08T04:06:23;102.40;;;48.53;;
22040;SDS011;11184;52.444;13.578;2023-04-08T04:09:07;109.20;;;52.50;;
22040;SDS011;11184;52.444;13.578;2023-04-08T04:11:52;110.85;;;50.50;;
22040;SDS011;11184;52.444;13.578;2023-04-08T04:14:36;111.38;;;52.83;;
22040;SDS011;11184;52.444;13.578;2023-04-08T04:17:21;109.43;;;49.38;;
22040;SDS011;11184;52.444;13.578;2023-04-08T04:20:06;116.45;;;52.95;;
22040;SDS011;11184;52.444;13.578;2023-04-08T04:22:51;115.55;;;53.33;;
22040;SDS011;11184;52.444;13.578;2023-04-08T04:25:35;106.53;;;52.50;;
22040;SDS011;11184;52.444;13.578;2023-04-08T04:28:21;112.55;;;52.53;;
22040;SDS011;11184;52.444;13.578;2023-04-08T04:31:06;110.85;;;53.22;;
22040;SDS011;11184;52.444;13.578;2023-04-08T04:33:51;109.88;;;54.45;;
22040;SDS011;11184;52.444;13.578;2023-04-08T04:36:36;107.38;;;52.55;;
22040;SDS011;11184;52.444;13.578;2023-04-08T04:39:20;109.78;;;54.30;;
22040;SDS011;11184;52.444;13.578;2023-04-08T04:42:05;112.30;;;53.72;;
22040;SDS011;11184;52.444;13.578;2023-04-08T04:44:49;110.47;;;53.60;;
22040;SDS011;11184;52.444;13.578;2023-04-08T04:47:34;117.68;;;55.70;;
22040;SDS011;11184;52.444;13.578;2023-04-08T04:50:19;108.50;;;53.88;;
22040;SDS011;11184;52.444;13.578;2023-04-08T04:53:04;103.38;;;49.40;;
22040;SDS011;11184;52.444;13.578;2023-04-08T04:55:49;111.32;;;53.50;;
22040;SDS011;11184;52.444;13.578;2023-04-08T04:58:34;116.70;;;54.10;;
22040;SDS011;11184;52.444;13.578;2023-04-08T05:01:18;103.20;;;51.25;;
22040;SDS011;11184;52.444;13.578;2023-04-08T05:04:03;108.78;;;54.95;;
22040;SDS011;11184;52.444;13.578;2023-04-08T05:06:48;111.68;;;55.80;;
22040;SDS011;11184;52.444;13.578;2023-04-08T05:09:32;110.82;;;59.63;;
22040;SDS011;11184;52.444;13.578;2023-04-08T05:12:17;108.80;;;54.22;;
22040;SDS011;11184;52.444;13.578;2023-04-08T05:15:03;111.28;;;55.05;;
22040;SDS011;11184;52.444;13.578;2023-04-08T05:17:49;100.80;;;53.42;;
22040;SDS011;11184;52.444;13.578;2023-04-08T05:20:33;117.13;;;56.25;;
22040;SDS011;11184;52.444;13.578;2023-04-08T05:23:18;118.32;;;58.35;;
22040;SDS011;11184;52.444;13.578;2023-04-08T05:26:05;115.90;;;55.90;;
22040;SDS011;11184;52.444;13.578;2023-04-08T05:28:50;113.07;;;54.50;;
22040;SDS011;11184;52.444;13.578;2023-04-08T05:31:34;119.13;;;56.78;;
22040;SDS011;11184;52.444;13.578;2023-04-08T05:34:19;108.22;;;53.20;;
22040;SDS011;11184;52.444;13.578;2023-04-08T05:37:05;115.45;;;57.40;;
22040;SDS011;11184;52.444;13.578;2023-04-08T05:39:50;107.63;;;53.47;;
22040;SDS011;11184;52.444;13.578;2023-04-08T05:42:34;106.65;;;54.40;;
22040;SDS011;11184;52.444;13.578;2023-04-08T05:45:19;106.93;;;51.85;;
22040;SDS011;11184;52.444;13.578;2023-04-08T05:48:03;100.47;;;52.35;;
22040;SDS011;11184;52.444;13.578;2023-04-08T05:50:48;108.40;;;54.55;;
22040;SDS011;11184;52.444;13.578;2023-04-08T05:53:33;112.38;;;55.67;;
22040;SDS011;11184;52.444;13.578;2023-04-08T05:56:19;115.10;;;55.75;;
22040;SDS011;11184;52.444;13.578;2023-04-08T05:59:03;100.18;;;51.78;;
22040;SDS011;11184;52.444;13.578;2023-04-08T06:01:48;100.22;;;49.72;;
22040;SDS011;11184;52.444;13.578;2023-04-08T06:04:33;99.35;;;52.58;;
22040;SDS011;11184;52.444;13.578;2023-04-08T06:07:18;96.78;;;51.28;;
22040;SDS011;11184;52.444;13.578;2023-04-08T06:10:03;102.50;;;51.85;;
22040;SDS011;11184;52.444;13.578;2023-04-08T06:12:48;96.95;;;50.65;;
22040;SDS011;11184;52.444;13.578;2023-04-08T06:15:33;110.32;;;52.33;;
22040;SDS011;11184;52.444;13.578;2023-04-08T06:18:17;103.50;;;51.63;;
22040;SDS011;11184;52.444;13.578;2023-04-08T06:21:02;98.10;;;51.05;;
22040;SDS011;11184;52.444;13.578;2023-04-08T06:23:47;98.50;;;50.78;;
22040;SDS011;11184;52.444;13.578;2023-04-08T06:26:31;98.05;;;51.67;;
22040;SDS011;11184;52.444;13.578;2023-04-08T06:29:16;103.63;;;52.15;;
22040;SDS011;11184;52.444;13.578;2023-04-08T06:32:01;101.47;;;51.95;;
22040;SDS011;11184;52.444;13.578;2023-04-08T06:34:45;102.70;;;50.15;;
22040;SDS011;11184;52.444;13.578;2023-04-08T06:37:30;94.28;;;48.97;;
22040;SDS011;11184;52.444;13.578;2023-04-08T06:40:17;99.03;;;52.63;;
22040;SDS011;11184;52.444;13.578;2023-04-08T06:43:01;92.63;;;48.03;;
22040;SDS011;11184;52.444;13.578;2023-04-08T06:45:46;86.97;;;48.88;;
22040;SDS011;11184;52.444;13.578;2023-04-08T06:48:31;83.72;;;48.00;;
22040;SDS011;11184;52.444;13.578;2023-04-08T06:51:15;99.00;;;49.60;;
22040;SDS011;11184;52.444;13.578;2023-04-08T06:54:00;84.00;;;46.75;;
22040;SDS011;11184;52.444;13.578;2023-04-08T06:56:44;78.10;;;44.58;;
22040;SDS011;11184;52.444;13.578;2023-04-08T06:59:29;83.07;;;45.45;;
22040;SDS011;11184;52.444;13.578;2023-04-08T07:02:13;76.90;;;44.30;;
22040;SDS011;11184;52.444;13.578;2023-04-08T07:04:58;77.82;;;42.25;;
22040;SDS011;11184;52.444;13.578;2023-04-08T07:07:42;77.18;;;43.08;;
22040;SDS011;11184;52.444;13.578;2023-04-08T07:10:27;65.78;;;37.75;;
22040;SDS011;11184;52.444;13.578;2023-04-08T07:13:11;66.45;;;39.67;;
22040;SDS011;11184;52.444;13.578;2023-04-08T07:15:56;63.17;;;38.53;;
22040;SDS011;11184;52.444;13.578;2023-04-08T07:18:41;56.40;;;36.45;;
22040;SDS011;11184;52.444;13.578;2023-04-08T07:21:26;60.35;;;37.75;;
22040;SDS011;11184;52.444;13.578;2023-04-08T07:24:11;62.05;;;38.00;;
22040;SDS011;11184;52.444;13.578;2023-04-08T07:26:55;55.58;;;38.03;;
22040;SDS011;11184;52.444;13.578;2023-04-08T07:29:40;60.50;;;37.83;;
22040;SDS011;11184;52.444;13.578;2023-04-08T07:32:25;62.95;;;40.50;;
22040;SDS011;11184;52.444;13.578;2023-04-08T07:35:10;68.32;;;38.67;;
22040;SDS011;11184;52.444;13.578;2023-04-08T07:37:55;55.13;;;35.80;;
22040;SDS011;11184;52.444;13.578;2023-04-08T07:40:40;50.63;;;36.58;;
22040;SDS011;11184;52.444;13.578;2023-04-08T07:43:25;55.25;;;35.63;;
22040;SDS011;11184;52.444;13.578;2023-04-08T07:46:10;56.17;;;36.15;;
22040;SDS011;11184;52.444;13.578;2023-04-08T07:48:54;50.10;;;36.00;;
22040;SDS011;11184;52.444;13.578;2023-04-08T07:51:39;42.53;;;32.58;;
22040;SDS011;11184;52.444;13.578;2023-04-08T07:54:23;46.03;;;33.88;;
22040;SDS011;11184;52.444;13.578;2023-04-08T07:57:08;46.50;;;34.17;;
22040;SDS011;11184;52.444;13.578;2023-04-08T07:59:53;44.55;;;31.85;;
22040;SDS011;11184;52.444;13.578;2023-04-08T08:02:37;50.17;;;34.47;;
22040;SDS011;11184;52.444;13.578;2023-04-08T08:05:22;45.13;;;31.88;;
22040;SDS011;11184;52.444;13.578;2023-04-08T08:08:06;45.60;;;33.28;;
22040;SDS011;11184;52.444;13.578;2023-04-08T08:10:54;42.47;;;32.42;;
22040;SDS011;11184;52.444;13.578;2023-04-08T08:13:39;45.53;;;32.58;;
22040;SDS011;11184;52.444;13.578;2023-04-08T08:16:26;46.50;;;32.70;;
22040;SDS011;11184;52.444;13.578;2023-04-08T08:19:11;47.47;;;32.92;;
22040;SDS011;11184;52.444;13.578;2023-04-08T08:24:33;56.65;;;37.17;;
22040;SDS011;11184;52.444;13.578;2023-04-08T08:27:18;63.25;;;37.30;;
22040;SDS011;11184;52.444;13.578;2023-04-08T08:30:03;56.72;;;36.17;;
22040;SDS011;11184;52.444;13.578;2023-04-08T08:32:48;55.40;;;36.22;;
22040;SDS011;11184;52.444;13.578;2023-04-08T08:35:34;58.33;;;36.42;;
22040;SDS011;11184;52.444;13.578;2023-04-08T08:38:20;59.50;;;38.33;;
22040;SDS011;11184;52.444;13.578;2023-04-08T08:41:05;53.97;;;35.65;;
22040;SDS011;11184;52.444;13.578;2023-04-08T08:43:49;60.97;;;36.30;;
22040;SDS011;11184;52.444;13.578;2023-04-08T08:46:35;57.90;;;36.78;;
22040;SDS011;11184;52.444;13.578;2023-04-08T08:49:19;55.30;;;34.67;;
22040;SDS011;11184;52.444;13.578;2023-04-08T08:52:04;49.25;;;33.47;;
22040;SDS011;11184;52.444;13.578;2023-04-08T08:54:56;44.90;;;32.20;;
22040;SDS011;11184;52.444;13.578;2023-04-08T08:57:41;32.05;;;25.92;;
22040;SDS011;11184;52.444;13.578;2023-04-08T09:03:23;35.95;;;28.27;;
22040;SDS011;11184;52.444;13.578;2023-04-08T09:06:08;30.00;;;24.80;;
22040;SDS011;11184;52.444;13.578;2023-04-08T09:08:52;32.53;;;26.33;;
22040;SDS011;11184;52.444;13.578;2023-04-08T09:11:39;31.67;;;25.17;;
22040;SDS011;11184;52.444;13.578;2023-04-08T09:14:24;34.78;;;26.33;;
22040;SDS011;11184;52.444;13.578;2023-04-08T09:17:08;31.67;;;24.98;;
22040;SDS011;11184;52.444;13.578;2023-04-08T09:20:09;31.92;;;24.33;;
22040;SDS011;11184;52.444;13.578;2023-04-08T09:22:59;31.40;;;24.25;;
22040;SDS011;11184;52.444;13.578;2023-04-08T09:25:44;33.38;;;26.13;;
22040;SDS011;11184;52.444;13.578;2023-04-08T09:28:28;32.72;;;25.17;;
22040;SDS011;11184;52.444;13.578;2023-04-08T09:31:21;30.58;;;24.70;;
22040;SDS011;11184;52.444;13.578;2023-04-08T09:34:13;25.83;;;23.05;;
22040;SDS011;11184;52.444;13.578;2023-04-08T09:36:59;25.10;;;22.33;;
22040;SDS011;11184;52.444;13.578;2023-04-08T09:39:44;21.17;;;18.55;;
22040;SDS011;11184;52.444;13.578;2023-04-08T09:42:28;21.02;;;18.25;;
22040;SDS011;11184;52.444;13.578;2023-04-08T09:45:14;20.50;;;18.30;;
22040;SDS011;11184;52.444;13.578;2023-04-08T09:48:09;22.60;;;18.73;;
22040;SDS011;11184;52.444;13.578;2023-04-08T09:50:55;23.63;;;21.08;;
22040;SDS011;11184;52.444;13.578;2023-04-08T09:53:45;25.83;;;21.73;;
22040;SDS011;11184;52.444;13.578;2023-04-08T09:56:34;25.65;;;22.13;;
22040;SDS011;11184;52.444;13.578;2023-04-08T09:59:23;24.13;;;20.92;;
22040;SDS011;11184;52.444;13.578;2023-04-08T10:02:10;26.85;;;20.17;;
22040;SDS011;11184;52.444;13.578;2023-04-08T10:04:57;28.80;;;21.88;;
22040;SDS011;11184;52.444;13.578;2023-04-08T10:07:42;30.55;;;22.63;;
22040;SDS011;11184;52.444;13.578;2023-04-08T10:10:26;29.35;;;21.55;;
22040;SDS011;11184;52.444;13.578;2023-04-08T10:13:12;22.52;;;19.98;;
22040;SDS011;11184;52.444;13.578;2023-04-08T10:19:00;25.55;;;20.13;;
22040;SDS011;11184;52.444;13.578;2023-04-08T10:21:44;25.98;;;21.65;;
22040;SDS011;11184;52.444;13.578;2023-04-08T10:24:32;21.77;;;19.58;;
22040;SDS011;11184;52.444;13.578;2023-04-08T10:27:37;23.50;;;19.55;;
22040;SDS011;11184;52.444;13.578;2023-04-08T10:33:12;21.58;;;19.15;;
22040;SDS011;11184;52.444;13.578;2023-04-08T10:36:10;23.83;;;21.25;;
22040;SDS011;11184;52.444;13.578;2023-04-08T10:38:55;24.85;;;22.27;;
22040;SDS011;11184;52.444;13.578;2023-04-08T10:41:43;22.92;;;20.40;;
22040;SDS011;11184;52.444;13.578;2023-04-08T10:44:28;22.58;;;20.25;;
22040;SDS011;11184;52.444;13.578;2023-04-08T10:47:12;21.85;;;19.65;;
22040;SDS011;11184;52.444;13.578;2023-04-08T10:49:57;24.63;;;20.23;;
22040;SDS011;11184;52.444;13.578;2023-04-08T10:52:46;23.60;;;20.50;;
22040;SDS011;11184;52.444;13.578;2023-04-08T10:55:31;19.92;;;17.92;;
22040;SDS011;11184;52.444;13.578;2023-04-08T10:58:16;21.17;;;18.98;;
22040;SDS011;11184;52.444;13.578;2023-04-08T11:01:04;21.85;;;19.65;;
22040;SDS011;11184;52.444;13.578;2023-04-08T11:03:50;21.13;;;17.58;;
22040;SDS011;11184;52.444;13.578;2023-04-08T11:06:35;19.73;;;17.50;;
22040;SDS011;11184;52.444;13.578;2023-04-08T11:09:20;21.60;;;18.88;;
22040;SDS011;11184;52.444;13.578;2023-04-08T11:12:04;19.88;;;18.05;;
22040;SDS011;11184;52.444;13.578;2023-04-08T11:14:49;24.58;;;19.80;;
22040;SDS011;11184;52.444;13.578;2023-04-08T11:17:35;18.98;;;17.05;;
22040;SDS011;11184;52.444;13.578;2023-04-08T11:20:20;18.95;;;16.95;;
22040;SDS011;11184;52.444;13.578;2023-04-08T11:23:11;17.33;;;15.73;;
22040;SDS011;11184;52.444;13.578;2023-04-08T11:25:56;17.80;;;15.95;;
22040;SDS011;11184;52.444;13.578;2023-04-08T11:28:41;17.85;;;16.13;;
22040;SDS011;11184;52.444;13.578;2023-04-08T11:31:25;16.08;;;14.55;;
22040;SDS011;11184;52.444;13.578;2023-04-08T11:34:10;25.02;;;15.02;;
22040;SDS011;11184;52.444;13.578;2023-04-08T11:36:55;15.82;;;14.23;;
22040;SDS011;11184;52.444;13.578;2023-04-08T11:39:41;15.60;;;14.05;;
22040;SDS011;11184;52.444;13.578;2023-04-08T11:42:30;14.75;;;13.48;;
22040;SDS011;11184;52.444;13.578;2023-04-08T11:45:15;14.82;;;13.52;;
22040;SDS011;11184;52.444;13.578;2023-04-08T11:48:06;11.52;;;10.52;;
22040;SDS011;11184;52.444;13.578;2023-04-08T11:51:12;10.55;;;9.65;;
22040;SDS011;11184;52.444;13.578;2023-04-08T11:53:56;10.93;;;9.98;;
22040;SDS011;11184;52.444;13.578;2023-04-08T11:56:44;11.65;;;10.50;;
22040;SDS011;11184;52.444;13.578;2023-04-08T11:59:29;11.93;;;10.77;;
22040;SDS011;11184;52.444;13.578;2023-04-08T12:02:14;11.30;;;10.32;;
22040;SDS011;11184;52.444;13.578;2023-04-08T12:04:59;10.43;;;9.43;;
22040;SDS011;11184;52.444;13.578;2023-04-08T12:07:45;11.38;;;10.38;;
22040;SDS011;11184;52.444;13.578;2023-04-08T12:10:30;11.10;;;10.10;;
22040;SDS011;11184;52.444;13.578;2023-04-08T12:13:14;11.32;;;10.32;;
22040;SDS011;11184;52.444;13.578;2023-04-08T12:15:59;11.35;;;10.43;;
22040;SDS011;11184;52.444;13.578;2023-04-08T12:18:43;11.02;;;10.00;;
22040;SDS011;11184;52.444;13.578;2023-04-08T12:21:28;11.10;;;10.18;;
22040;SDS011;11184;52.444;13.578;2023-04-08T12:24:12;10.85;;;10.05;;
22040;SDS011;11184;52.444;13.578;2023-04-08T12:26:57;10.32;;;9.52;;
22040;SDS011;11184;52.444;13.578;2023-04-08T12:29:42;9.52;;;8.60;;
22040;SDS011;11184;52.444;13.578;2023-04-08T12:32:27;9.70;;;8.88;;
22040;SDS011;11184;52.444;13.578;2023-04-08T12:35:12;13.48;;;12.27;;
22040;SDS011;11184;52.444;13.578;2023-04-08T12:37:57;11.40;;;10.25;;
22040;SDS011;11184;52.444;13.578;2023-04-08T12:40:42;10.70;;;9.70;;
22040;SDS011;11184;52.444;13.578;2023-04-08T12:43:26;11.98;;;10.95;;
22040;SDS011;11184;52.444;13.578;2023-04-08T12:46:11;11.82;;;10.10;;
22040;SDS011;11184;52.444;13.578;2023-04-08T12:48:55;11.07;;;9.70;;
22040;SDS011;11184;52.444;13.578;2023-04-08T12:51:40;11.20;;;10.13;;
22040;SDS011;11184;52.444;13.578;2023-04-08T12:54:25;12.30;;;11.15;;
22040;SDS011;11184;52.444;13.578;2023-04-08T12:57:09;11.30;;;10.30;;
22040;SDS011;11184;52.444;13.578;2023-04-08T12:59:55;10.50;;;9.50;;
22040;SDS011;11184;52.444;13.578;2023-04-08T13:02:39;10.38;;;9.35;;
22040;SDS011;11184;52.444;13.578;2023-04-08T13:05:25;10.40;;;9.40;;
22040;SDS011;11184;52.444;13.578;2023-04-08T13:08:10;10.77;;;9.88;;
22040;SDS011;11184;52.444;13.578;2023-04-08T13:10:55;10.75;;;9.85;;
22040;SDS011;11184;52.444;13.578;2023-04-08T13:13:39;10.40;;;9.48;;
22040;SDS011;11184;52.444;13.578;2023-04-08T13:16:24;10.50;;;9.57;;
22040;SDS011;11184;52.444;13.578;2023-04-08T13:19:09;10.27;;;9.38;;
22040;SDS011;11184;52.444;13.578;2023-04-08T13:21:54;11.88;;;10.85;;
22040;SDS011;11184;52.444;13.578;2023-04-08T13:24:38;10.00;;;9.10;;
22040;SDS011;11184;52.444;13.578;2023-04-08T13:27:23;8.90;;;8.20;;
22040;SDS011;11184;52.444;13.578;2023-04-08T13:30:08;10.70;;;9.85;;
22040;SDS011;11184;52.444;13.578;2023-04-08T13:32:53;10.15;;;9.35;;
22040;SDS011;11184;52.444;13.578;2023-04-08T13:35:37;9.93;;;9.13;;
22040;SDS011;11184;52.444;13.578;2023-04-08T13:38:22;12.25;;;10.73;;
22040;SDS011;11184;52.444;13.578;2023-04-08T13:41:06;32.60;;;22.33;;
22040;SDS011;11184;52.444;13.578;2023-04-08T13:43:51;11.63;;;10.57;;
22040;SDS011;11184;52.444;13.578;2023-04-08T13:46:36;12.40;;;11.15;;
22040;SDS011;11184;52.444;13.578;2023-04-08T13:49:22;10.23;;;9.43;;
22040;SDS011;11184;52.444;13.578;2023-04-08T13:52:07;11.02;;;10.00;;
22040;SDS011;11184;52.444;13.578;2023-04-08T13:54:51;11.18;;;10.15;;
22040;SDS011;11184;52.444;13.578;2023-04-08T13:57:36;11.63;;;10.52;;
22040;SDS011;11184;52.444;13.578;2023-04-08T14:00:20;12.88;;;11.82;;
22040;SDS011;11184;52.444;13.578;2023-04-08T14:03:05;11.07;;;9.98;;
22040;SDS011;11184;52.444;13.578;2023-04-08T14:05:49;10.43;;;9.48;;
22040;SDS011;11184;52.444;13.578;2023-04-08T14:08:34;10.88;;;9.98;;
22040;SDS011;11184;52.444;13.578;2023-04-08T14:11:19;12.85;;;11.50;;
22040;SDS011;11184;52.444;13.578;2023-04-08T14:14:04;11.60;;;10.50;;
22040;SDS011;11184;52.444;13.578;2023-04-08T14:16:49;11.50;;;10.50;;
22040;SDS011;11184;52.444;13.578;2023-04-08T14:19:33;10.73;;;9.73;;
22040;SDS011;11184;52.444;13.578;2023-04-08T14:24:57;12.23;;;11.13;;
22040;SDS011;11184;52.444;13.578;2023-04-08T14:27:42;12.05;;;10.95;;
22040;SDS011;11184;52.444;13.578;2023-04-08T14:30:27;12.55;;;11.45;;
22040;SDS011;11184;52.444;13.578;2023-04-08T14:33:11;11.40;;;10.40;;
22040;SDS011;11184;52.444;13.578;2023-04-08T14:35:56;11.07;;;9.75;;
22040;SDS011;11184;52.444;13.578;2023-04-08T14:38:42;11.77;;;10.68;;
22040;SDS011;11184;52.444;13.578;2023-04-08T14:41:27;12.98;;;11.75;;
22040;SDS011;11184;52.444;13.578;2023-04-08T14:44:11;13.90;;;12.60;;
22040;SDS011;11184;52.444;13.578;2023-04-08T14:46:56;11.20;;;10.20;;
22040;SDS011;11184;52.444;13.578;2023-04-08T14:49:43;12.65;;;11.13;;
22040;SDS011;11184;52.444;13.578;2023-04-08T14:52:28;11.52;;;10.38;;
22040;SDS011;11184;52.444;13.578;2023-04-08T14:55:12;12.10;;;11.00;;
22040;SDS011;11184;52.444;13.578;2023-04-08T14:57:57;10.63;;;9.63;;
22040;SDS011;11184;52.444;13.578;2023-04-08T15:00:42;11.05;;;10.02;;
22040;SDS011;11184;52.444;13.578;2023-04-08T15:03:28;11.00;;;10.10;;
22040;SDS011;11184;52.444;13.578;2023-04-08T15:06:13;11.00;;;10.00;;
22040;SDS011;11184;52.444;13.578;2023-04-08T15:09:00;11.48;;;10.52;;
22040;SDS011;11184;52.444;13.578;2023-04-08T15:11:44;11.68;;;10.45;;
22040;SDS011;11184;52.444;13.578;2023-04-08T15:14:29;12.93;;;11.40;;
22040;SDS011;11184;52.444;13.578;2023-04-08T15:17:14;11.85;;;10.80;;
22040;SDS011;11184;52.444;13.578;2023-04-08T15:19:59;10.63;;;9.73;;
22040;SDS011;11184;52.444;13.578;2023-04-08T15:22:44;11.50;;;10.25;;
22040;SDS011;11184;52.444;13.578;2023-04-08T15:25:29;11.63;;;10.63;;
22040;SDS011;11184;52.444;13.578;2023-04-08T15:28:13;11.32;;;10.30;;
22040;SDS011;11184;52.444;13.578;2023-04-08T15:30:58;13.20;;;11.82;;
22040;SDS011;11184;52.444;13.578;2023-04-08T15:33:42;11.85;;;10.75;;
22040;SDS011;11184;52.444;13.578;2023-04-08T15:36:28;12.52;;;11.40;;
22040;SDS011;11184;52.444;13.578;2023-04-08T15:39:13;13.82;;;12.32;;
22040;SDS011;11184;52.444;13.578;2023-04-08T15:41:58;12.43;;;11.15;;
22040;SDS011;11184;52.444;13.578;2023-04-08T15:44:42;11.15;;;10.05;;
22040;SDS011;11184;52.444;13.578;2023-04-08T15:47:27;11.38;;;10.35;;
22040;SDS011;11184;52.444;13.578;2023-04-08T15:50:11;11.32;;;10.20;;
22040;SDS011;11184;52.444;13.578;2023-04-08T15:52:57;12.77;;;11.52;;
22040;SDS011;11184;52.444;13.578;2023-04-08T15:55:42;13.52;;;12.32;;
22040;SDS011;11184;52.444;13.578;2023-04-08T15:58:26;14.45;;;13.05;;
22040;SDS011;11184;52.444;13.578;2023-04-08T16:01:11;12.82;;;10.40;;
22040;SDS011;11184;52.444;13.578;2023-04-08T16:03:56;13.40;;;11.70;;
22040;SDS011;11184;52.444;13.578;2023-04-08T16:06:41;11.50;;;10.45;;
22040;SDS011;11184;52.444;13.578;2023-04-08T16:09:25;12.50;;;11.40;;